sensor_id;sensor_type;location;lat;lon;timestamp;temperature;humidity
39525;DHT22;25203;50.754;6.978;2024-01-16T00:01:45;1.10;99.90
39525;DHT22;25203;50.754;6.978;2024-01-16T00:03:46;1.10;99.90
39525;DHT22;25203;50.754;6.978;2024-01-16T00:05:46;1.10;99.90
39525;DHT22;25203;50.754;6.978;2024-01-16T00:07:47;1.10;99.90
39525;DHT22;25203;50.754;6.978;2024-01-16T00:09:48;1.10;99.90
39525;DHT22;25203;50.754;6.978;2024-01-16T00:11:51;1.10;99.90
39525;DHT22;25203;50.754;6.978;2024-01-16T00:13:52;1.10;99.90
39525;DHT22;25203;50.754;6.978;2024-01-16T00:15:54;1.10;99.90
39525;DHT22;25203;50.754;6.978;2024-01-16T00:17:54;1.10;99.90
39525;DHT22;25203;50.754;6.978;2024-01-16T00:19:55;1.10;99.90
39525;DHT22;25203;50.754;6.978;2024-01-16T00:21:55;1.10;99.90
39525;DHT22;25203;50.754;6.978;2024-01-16T00:23:56;1.20;99.90
39525;DHT22;25203;50.754;6.978;2024-01-16T00:25:57;1.20;99.90
39525;DHT22;25203;50.754;6.978;2024-01-16T00:27:57;1.20;99.90
39525;DHT22;25203;50.754;6.978;2024-01-16T00:29:58;1.10;99.90
39525;DHT22;25203;50.754;6.978;2024-01-16T00:31:58;1.10;99.90
39525;DHT22;25203;50.754;6.978;2024-01-16T00:33:59;1.10;99.90
39525;DHT22;25203;50.754;6.978;2024-01-16T00:36:00;1.10;99.90
39525;DHT22;25203;50.754;6.978;2024-01-16T00:38:00;1.00;99.90
39525;DHT22;25203;50.754;6.978;2024-01-16T00:40:01;1.00;99.90
39525;DHT22;25203;50.754;6.978;2024-01-16T00:42:04;1.00;99.90
39525;DHT22;25203;50.754;6.978;2024-01-16T00:44:06;1.00;99.90
39525;DHT22;25203;50.754;6.978;2024-01-16T00:46:08;1.00;99.90
39525;DHT22;25203;50.754;6.978;2024-01-16T00:48:08;1.00;99.90
39525;DHT22;25203;50.754;6.978;2024-01-16T00:50:10;1.00;99.90
39525;DHT22;25203;50.754;6.978;2024-01-16T00:52:11;1.00;99.90
39525;DHT22;25203;50.754;6.978;2024-01-16T00:54:11;1.00;99.90
39525;DHT22;25203;50.754;6.978;2024-01-16T00:56:12;1.00;99.90
39525;DHT22;25203;50.754;6.978;2024-01-16T00:58:13;1.10;99.90
39525;DHT22;25203;50.754;6.978;2024-01-16T01:00:13;1.10;99.90
39525;DHT22;25203;50.754;6.978;2024-01-16T01:02:15;1.10;99.90
39525;DHT22;25203;50.754;6.978;2024-01-16T01:04:15;1.10;99.90
39525;DHT22;25203;50.754;6.978;2024-01-16T01:06:16;1.10;99.90
39525;DHT22;25203;50.754;6.978;2024-01-16T01:08:16;1.10;99.90
39525;DHT22;25203;50.754;6.978;2024-01-16T01:10:17;1.10;99.90
39525;DHT22;25203;50.754;6.978;2024-01-16T01:12:18;1.00;99.90
39525;DHT22;25203;50.754;6.978;2024-01-16T01:14:19;1.00;99.90
39525;DHT22;25203;50.754;6.978;2024-01-16T01:16:19;1.00;99.90
39525;DHT22;25203;50.754;6.978;2024-01-16T01:18:20;1.00;99.90
39525;DHT22;25203;50.754;6.978;2024-01-16T01:20:20;1.00;99.90
39525;DHT22;25203;50.754;6.978;2024-01-16T01:22:21;1.00;99.90
39525;DHT22;25203;50.754;6.978;2024-01-16T01:24:22;1.00;99.90
39525;DHT22;25203;50.754;6.978;2024-01-16T01:26:22;1.10;99.90
39525;DHT22;25203;50.754;6.978;2024-01-16T01:28:23;1.00;99.90
39525;DHT22;25203;50.754;6.978;2024-01-16T01:30:24;1.10;99.90
39525;DHT22;25203;50.754;6.978;2024-01-16T01:32:24;1.00;99.90
39525;DHT22;25203;50.754;6.978;2024-01-16T01:34:27;1.00;99.90
39525;DHT22;25203;50.754;6.978;2024-01-16T01:36:28;1.00;99.90
39525;DHT22;25203;50.754;6.978;2024-01-16T01:38:28;1.00;99.90
39525;DHT22;25203;50.754;6.978;2024-01-16T01:40:29;1.00;99.90
39525;DHT22;25203;50.754;6.978;2024-01-16T01:42:30;1.00;99.90
39525;DHT22;25203;50.754;6.978;2024-01-16T01:44:30;1.00;99.90
39525;DHT22;25203;50.754;6.978;2024-01-16T01:46:32;0.90;99.90
39525;DHT22;25203;50.754;6.978;2024-01-16T01:48:35;1.00;99.90
39525;DHT22;25203;50.754;6.978;2024-01-16T01:50:36;0.90;99.90
39525;DHT22;25203;50.754;6.978;2024-01-16T01:52:39;0.90;99.90
39525;DHT22;25203;50.754;6.978;2024-01-16T01:54:41;0.90;99.90
39525;DHT22;25203;50.754;6.978;2024-01-16T01:56:45;0.90;99.90
39525;DHT22;25203;50.754;6.978;2024-01-16T01:58:47;0.90;99.90
39525;DHT22;25203;50.754;6.978;2024-01-16T02:00:50;0.90;99.90
39525;DHT22;25203;50.754;6.978;2024-01-16T02:02:51;0.90;99.90
39525;DHT22;25203;50.754;6.978;2024-01-16T02:04:51;0.80;99.90
39525;DHT22;25203;50.754;6.978;2024-01-16T02:06:52;0.80;99.90
39525;DHT22;25203;50.754;6.978;2024-01-16T02:08:53;0.70;99.90
39525;DHT22;25203;50.754;6.978;2024-01-16T02:10:54;0.70;99.90
39525;DHT22;25203;50.754;6.978;2024-01-16T02:12:55;0.60;99.90
39525;DHT22;25203;50.754;6.978;2024-01-16T02:14:55;0.60;99.90
39525;DHT22;25203;50.754;6.978;2024-01-16T02:16:56;0.60;99.90
39525;DHT22;25203;50.754;6.978;2024-01-16T02:18:57;0.50;99.90
39525;DHT22;25203;50.754;6.978;2024-01-16T02:21:00;0.60;99.90
39525;DHT22;25203;50.754;6.978;2024-01-16T02:23:03;0.60;99.90
39525;DHT22;25203;50.754;6.978;2024-01-16T02:25:04;0.50;99.90
39525;DHT22;25203;50.754;6.978;2024-01-16T02:27:05;0.50;99.90
39525;DHT22;25203;50.754;6.978;2024-01-16T02:29:06;0.50;99.90
39525;DHT22;25203;50.754;6.978;2024-01-16T02:31:07;0.50;99.90
39525;DHT22;25203;50.754;6.978;2024-01-16T02:33:08;0.50;99.90
39525;DHT22;25203;50.754;6.978;2024-01-16T02:35:09;0.50;99.90
39525;DHT22;25203;50.754;6.978;2024-01-16T02:37:10;0.60;99.90
39525;DHT22;25203;50.754;6.978;2024-01-16T02:39:10;0.60;99.90
39525;DHT22;25203;50.754;6.978;2024-01-16T02:41:13;0.60;99.90
39525;DHT22;25203;50.754;6.978;2024-01-16T02:43:14;0.60;99.90
39525;DHT22;25203;50.754;6.978;2024-01-16T02:45:15;0.60;99.90
39525;DHT22;25203;50.754;6.978;2024-01-16T02:47:15;0.60;99.90
39525;DHT22;25203;50.754;6.978;2024-01-16T02:49:16;0.60;99.90
39525;DHT22;25203;50.754;6.978;2024-01-16T02:51:17;0.60;99.90
39525;DHT22;25203;50.754;6.978;2024-01-16T02:53:17;0.70;99.90
39525;DHT22;25203;50.754;6.978;2024-01-16T02:55:18;0.60;99.90
39525;DHT22;25203;50.754;6.978;2024-01-16T02:57:18;0.70;99.90
39525;DHT22;25203;50.754;6.978;2024-01-16T02:59:19;0.70;99.90
39525;DHT22;25203;50.754;6.978;2024-01-16T03:01:20;0.70;99.90
39525;DHT22;25203;50.754;6.978;2024-01-16T03:03:20;0.70;99.90
39525;DHT22;25203;50.754;6.978;2024-01-16T03:05:21;0.70;99.90
39525;DHT22;25203;50.754;6.978;2024-01-16T03:07:22;0.70;99.90
39525;DHT22;25203;50.754;6.978;2024-01-16T03:09:22;0.70;99.90
39525;DHT22;25203;50.754;6.978;2024-01-16T03:11:23;0.60;99.90
39525;DHT22;25203;50.754;6.978;2024-01-16T03:13:23;0.60;99.90
39525;DHT22;25203;50.754;6.978;2024-01-16T03:15:24;0.70;99.90
39525;DHT22;25203;50.754;6.978;2024-01-16T03:17:25;0.70;99.90
39525;DHT22;25203;50.754;6.978;2024-01-16T03:19:26;0.70;99.90
39525;DHT22;25203;50.754;6.978;2024-01-16T03:21:27;0.80;99.90
39525;DHT22;25203;50.754;6.978;2024-01-16T03:23:27;0.80;99.90
39525;DHT22;25203;50.754;6.978;2024-01-16T03:25:28;0.80;99.90
39525;DHT22;25203;50.754;6.978;2024-01-16T03:27:29;0.80;99.90
39525;DHT22;25203;50.754;6.978;2024-01-16T03:29:29;0.80;99.90
39525;DHT22;25203;50.754;6.978;2024-01-16T03:31:30;0.80;99.90
39525;DHT22;25203;50.754;6.978;2024-01-16T03:33:31;0.80;99.90
39525;DHT22;25203;50.754;6.978;2024-01-16T03:35:32;0.80;99.90
39525;DHT22;25203;50.754;6.978;2024-01-16T03:37:33;0.80;99.90
39525;DHT22;25203;50.754;6.978;2024-01-16T03:39:34;0.80;99.90
39525;DHT22;25203;50.754;6.978;2024-01-16T03:41:34;0.80;99.90
39525;DHT22;25203;50.754;6.978;2024-01-16T03:43:35;0.70;99.90
39525;DHT22;25203;50.754;6.978;2024-01-16T03:45:36;0.70;99.90
39525;DHT22;25203;50.754;6.978;2024-01-16T03:47:36;0.70;99.90
39525;DHT22;25203;50.754;6.978;2024-01-16T03:49:37;0.60;99.90
39525;DHT22;25203;50.754;6.978;2024-01-16T03:51:37;0.60;99.90
39525;DHT22;25203;50.754;6.978;2024-01-16T03:53:38;0.50;99.90
39525;DHT22;25203;50.754;6.978;2024-01-16T03:55:38;0.50;99.90
39525;DHT22;25203;50.754;6.978;2024-01-16T03:57:39;0.40;99.90
39525;DHT22;25203;50.754;6.978;2024-01-16T03:59:40;0.40;99.90
39525;DHT22;25203;50.754;6.978;2024-01-16T04:01:40;0.40;99.90
39525;DHT22;25203;50.754;6.978;2024-01-16T04:03:43;0.30;99.90
39525;DHT22;25203;50.754;6.978;2024-01-16T04:05:43;0.30;99.90
39525;DHT22;25203;50.754;6.978;2024-01-16T04:07:44;0.30;99.90
39525;DHT22;25203;50.754;6.978;2024-01-16T04:09:45;0.30;99.90
39525;DHT22;25203;50.754;6.978;2024-01-16T04:11:45;0.30;99.90
39525;DHT22;25203;50.754;6.978;2024-01-16T04:13:49;0.30;99.90
39525;DHT22;25203;50.754;6.978;2024-01-16T04:15:50;0.30;99.90
39525;DHT22;25203;50.754;6.978;2024-01-16T04:17:51;0.20;99.90
39525;DHT22;25203;50.754;6.978;2024-01-16T04:19:51;0.30;99.90
39525;DHT22;25203;50.754;6.978;2024-01-16T04:21:52;0.30;99.90
39525;DHT22;25203;50.754;6.978;2024-01-16T04:23:52;0.20;99.90
39525;DHT22;25203;50.754;6.978;2024-01-16T04:25:53;0.30;99.90
39525;DHT22;25203;50.754;6.978;2024-01-16T04:27:53;0.30;99.90
39525;DHT22;25203;50.754;6.978;2024-01-16T04:29:54;0.30;99.90
39525;DHT22;25203;50.754;6.978;2024-01-16T04:31:56;0.30;99.90
39525;DHT22;25203;50.754;6.978;2024-01-16T04:33:57;0.30;99.90
39525;DHT22;25203;50.754;6.978;2024-01-16T04:35:57;0.30;99.90
39525;DHT22;25203;50.754;6.978;2024-01-16T04:37:58;0.30;99.90
39525;DHT22;25203;50.754;6.978;2024-01-16T04:39:58;0.30;99.90
39525;DHT22;25203;50.754;6.978;2024-01-16T04:42:00;0.30;99.90
39525;DHT22;25203;50.754;6.978;2024-01-16T04:44:00;0.30;99.90
39525;DHT22;25203;50.754;6.978;2024-01-16T04:46:01;0.30;99.90
39525;DHT22;25203;50.754;6.978;2024-01-16T04:48:02;0.30;99.90
39525;DHT22;25203;50.754;6.978;2024-01-16T04:50:03;0.30;99.90
39525;DHT22;25203;50.754;6.978;2024-01-16T04:52:04;0.30;99.90
39525;DHT22;25203;50.754;6.978;2024-01-16T04:54:05;0.30;99.90
39525;DHT22;25203;50.754;6.978;2024-01-16T04:56:05;0.30;99.90
39525;DHT22;25203;50.754;6.978;2024-01-16T04:58:06;0.30;99.90
39525;DHT22;25203;50.754;6.978;2024-01-16T05:00:08;0.30;99.90
39525;DHT22;25203;50.754;6.978;2024-01-16T05:02:09;0.30;99.90
39525;DHT22;25203;50.754;6.978;2024-01-16T05:04:09;0.30;99.90
39525;DHT22;25203;50.754;6.978;2024-01-16T05:06:14;0.30;99.90
39525;DHT22;25203;50.754;6.978;2024-01-16T05:08:15;0.30;99.90
39525;DHT22;25203;50.754;6.978;2024-01-16T05:10:15;0.30;99.90
39525;DHT22;25203;50.754;6.978;2024-01-16T05:12:16;0.30;99.90
39525;DHT22;25203;50.754;6.978;2024-01-16T05:14:17;0.30;99.90
39525;DHT22;25203;50.754;6.978;2024-01-16T05:16:17;0.30;99.90
39525;DHT22;25203;50.754;6.978;2024-01-16T05:18:18;0.30;99.90
39525;DHT22;25203;50.754;6.978;2024-01-16T05:20:18;0.30;99.90
39525;DHT22;25203;50.754;6.978;2024-01-16T05:22:19;0.30;99.90
39525;DHT22;25203;50.754;6.978;2024-01-16T05:24:20;0.30;99.90
39525;DHT22;25203;50.754;6.978;2024-01-16T05:26:21;0.30;99.90
39525;DHT22;25203;50.754;6.978;2024-01-16T05:28:22;0.30;99.90
39525;DHT22;25203;50.754;6.978;2024-01-16T05:30:23;0.30;99.90
39525;DHT22;25203;50.754;6.978;2024-01-16T05:32:23;0.30;99.90
39525;DHT22;25203;50.754;6.978;2024-01-16T05:34:25;0.30;99.90
39525;DHT22;25203;50.754;6.978;2024-01-16T05:36:26;0.30;99.90
39525;DHT22;25203;50.754;6.978;2024-01-16T05:38:27;0.40;99.90
39525;DHT22;25203;50.754;6.978;2024-01-16T05:40:28;0.30;99.90
39525;DHT22;25203;50.754;6.978;2024-01-16T05:42:29;0.40;99.90
39525;DHT22;25203;50.754;6.978;2024-01-16T05:44:29;0.40;99.90
39525;DHT22;25203;50.754;6.978;2024-01-16T05:46:33;0.40;99.90
39525;DHT22;25203;50.754;6.978;2024-01-16T05:48:34;0.50;99.90
39525;DHT22;25203;50.754;6.978;2024-01-16T05:50:36;0.50;99.90
39525;DHT22;25203;50.754;6.978;2024-01-16T05:52:37;0.50;99.90
39525;DHT22;25203;50.754;6.978;2024-01-16T05:54:37;0.50;99.90
39525;DHT22;25203;50.754;6.978;2024-01-16T05:56:38;0.50;99.90
39525;DHT22;25203;50.754;6.978;2024-01-16T05:58:38;0.50;99.90
39525;DHT22;25203;50.754;6.978;2024-01-16T06:00:40;0.50;99.90
39525;DHT22;25203;50.754;6.978;2024-01-16T06:02:41;0.50;99.90
39525;DHT22;25203;50.754;6.978;2024-01-16T06:04:41;0.40;99.90
39525;DHT22;25203;50.754;6.978;2024-01-16T06:06:42;0.40;99.90
39525;DHT22;25203;50.754;6.978;2024-01-16T06:08:45;0.40;99.90
39525;DHT22;25203;50.754;6.978;2024-01-16T06:10:46;0.40;99.90
39525;DHT22;25203;50.754;6.978;2024-01-16T06:12:46;0.40;99.90
39525;DHT22;25203;50.754;6.978;2024-01-16T06:14:47;0.40;99.90
39525;DHT22;25203;50.754;6.978;2024-01-16T06:16:47;0.40;99.90
39525;DHT22;25203;50.754;6.978;2024-01-16T06:18:49;0.40;99.90
39525;DHT22;25203;50.754;6.978;2024-01-16T06:20:49;0.30;99.90
39525;DHT22;25203;50.754;6.978;2024-01-16T06:22:50;0.30;99.90
39525;DHT22;25203;50.754;6.978;2024-01-16T06:24:50;0.30;99.90
39525;DHT22;25203;50.754;6.978;2024-01-16T06:26:51;0.30;99.90
39525;DHT22;25203;50.754;6.978;2024-01-16T06:28:52;0.30;99.90
39525;DHT22;25203;50.754;6.978;2024-01-16T06:30:52;0.30;99.90
39525;DHT22;25203;50.754;6.978;2024-01-16T06:32:53;0.30;99.90
39525;DHT22;25203;50.754;6.978;2024-01-16T06:34:53;0.30;99.90
39525;DHT22;25203;50.754;6.978;2024-01-16T06:36:54;0.30;99.90
39525;DHT22;25203;50.754;6.978;2024-01-16T06:38:55;0.30;99.90
39525;DHT22;25203;50.754;6.978;2024-01-16T06:40:55;0.40;99.90
39525;DHT22;25203;50.754;6.978;2024-01-16T06:42:56;0.30;99.90
39525;DHT22;25203;50.754;6.978;2024-01-16T06:44:57;0.30;99.90
39525;DHT22;25203;50.754;6.978;2024-01-16T06:46:57;0.40;99.90
39525;DHT22;25203;50.754;6.978;2024-01-16T06:48:58;0.40;99.90
39525;DHT22;25203;50.754;6.978;2024-01-16T06:50:58;0.40;99.90
39525;DHT22;25203;50.754;6.978;2024-01-16T06:52:59;0.40;99.90
39525;DHT22;25203;50.754;6.978;2024-01-16T06:55:00;0.40;99.90
39525;DHT22;25203;50.754;6.978;2024-01-16T06:57:00;0.40;99.90
39525;DHT22;25203;50.754;6.978;2024-01-16T06:59:01;0.40;99.90
39525;DHT22;25203;50.754;6.978;2024-01-16T07:01:03;0.40;99.90
39525;DHT22;25203;50.754;6.978;2024-01-16T07:03:04;0.40;99.90
39525;DHT22;25203;50.754;6.978;2024-01-16T07:05:04;0.40;99.90
39525;DHT22;25203;50.754;6.978;2024-01-16T07:07:05;0.40;99.90
39525;DHT22;25203;50.754;6.978;2024-01-16T07:09:06;0.40;99.90
39525;DHT22;25203;50.754;6.978;2024-01-16T07:11:06;0.40;99.90
39525;DHT22;25203;50.754;6.978;2024-01-16T07:13:09;0.30;99.90
39525;DHT22;25203;50.754;6.978;2024-01-16T07:15:10;0.30;99.90
39525;DHT22;25203;50.754;6.978;2024-01-16T07:17:10;0.20;99.90
39525;DHT22;25203;50.754;6.978;2024-01-16T07:19:11;0.20;99.90
39525;DHT22;25203;50.754;6.978;2024-01-16T07:21:19;0.20;99.90
39525;DHT22;25203;50.754;6.978;2024-01-16T07:23:20;0.20;99.90
39525;DHT22;25203;50.754;6.978;2024-01-16T07:25:20;0.10;99.90
39525;DHT22;25203;50.754;6.978;2024-01-16T07:27:21;0.10;99.90
39525;DHT22;25203;50.754;6.978;2024-01-16T07:29:22;0.10;99.90
39525;DHT22;25203;50.754;6.978;2024-01-16T07:31:23;0.10;99.90
39525;DHT22;25203;50.754;6.978;2024-01-16T07:33:23;0.00;99.90
39525;DHT22;25203;50.754;6.978;2024-01-16T07:35:24;0.00;99.90
39525;DHT22;25203;50.754;6.978;2024-01-16T07:37:25;0.00;99.90
39525;DHT22;25203;50.754;6.978;2024-01-16T07:39:25;-0.10;99.90
39525;DHT22;25203;50.754;6.978;2024-01-16T07:41:26;-0.10;99.90
39525;DHT22;25203;50.754;6.978;2024-01-16T07:43:26;-0.10;99.90
39525;DHT22;25203;50.754;6.978;2024-01-16T07:45:27;-0.10;99.90
39525;DHT22;25203;50.754;6.978;2024-01-16T07:47:28;-0.10;99.90
39525;DHT22;25203;50.754;6.978;2024-01-16T07:49:28;-0.10;99.90
39525;DHT22;25203;50.754;6.978;2024-01-16T07:51:29;-0.10;99.90
39525;DHT22;25203;50.754;6.978;2024-01-16T07:53:29;-0.20;99.90
39525;DHT22;25203;50.754;6.978;2024-01-16T07:55:30;-0.10;99.90
39525;DHT22;25203;50.754;6.978;2024-01-16T07:57:31;-0.10;99.90
39525;DHT22;25203;50.754;6.978;2024-01-16T07:59:31;-0.20;99.90
39525;DHT22;25203;50.754;6.978;2024-01-16T08:01:32;-0.20;99.90
39525;DHT22;25203;50.754;6.978;2024-01-16T08:03:32;-0.20;99.90
39525;DHT22;25203;50.754;6.978;2024-01-16T08:05:33;-0.20;99.90
39525;DHT22;25203;50.754;6.978;2024-01-16T08:07:34;-0.20;99.90
39525;DHT22;25203;50.754;6.978;2024-01-16T08:09:35;-0.20;99.90
39525;DHT22;25203;50.754;6.978;2024-01-16T08:11:35;-0.20;99.90
39525;DHT22;25203;50.754;6.978;2024-01-16T08:13:37;-0.20;99.90
39525;DHT22;25203;50.754;6.978;2024-01-16T08:15:37;-0.30;99.90
39525;DHT22;25203;50.754;6.978;2024-01-16T08:17:38;-0.30;99.90
39525;DHT22;25203;50.754;6.978;2024-01-16T08:19:39;-0.30;99.90
39525;DHT22;25203;50.754;6.978;2024-01-16T08:21:40;-0.30;99.90
39525;DHT22;25203;50.754;6.978;2024-01-16T08:23:40;-0.40;99.90
39525;DHT22;25203;50.754;6.978;2024-01-16T08:25:41;-0.40;99.90
39525;DHT22;25203;50.754;6.978;2024-01-16T08:27:42;-0.40;99.90
39525;DHT22;25203;50.754;6.978;2024-01-16T08:29:44;-0.40;99.90
39525;DHT22;25203;50.754;6.978;2024-01-16T08:31:44;-0.50;99.90
39525;DHT22;25203;50.754;6.978;2024-01-16T08:33:45;-0.50;99.90
39525;DHT22;25203;50.754;6.978;2024-01-16T08:35:47;-0.50;99.90
39525;DHT22;25203;50.754;6.978;2024-01-16T08:37:48;-0.60;99.90
39525;DHT22;25203;50.754;6.978;2024-01-16T08:39:50;-0.60;99.90
39525;DHT22;25203;50.754;6.978;2024-01-16T08:41:51;-0.50;99.90
39525;DHT22;25203;50.754;6.978;2024-01-16T08:43:51;-0.50;99.90
39525;DHT22;25203;50.754;6.978;2024-01-16T08:45:53;-0.40;99.90
39525;DHT22;25203;50.754;6.978;2024-01-16T08:47:54;-0.20;99.90
39525;DHT22;25203;50.754;6.978;2024-01-16T08:49:54;0.20;99.90
39525;DHT22;25203;50.754;6.978;2024-01-16T08:51:55;0.50;99.90
39525;DHT22;25203;50.754;6.978;2024-01-16T08:53:56;0.90;99.90
39525;DHT22;25203;50.754;6.978;2024-01-16T08:55:57;1.10;99.90
39525;DHT22;25203;50.754;6.978;2024-01-16T08:57:57;1.40;99.90
39525;DHT22;25203;50.754;6.978;2024-01-16T08:59:58;1.60;99.90
39525;DHT22;25203;50.754;6.978;2024-01-16T09:01:58;1.80;99.90
39525;DHT22;25203;50.754;6.978;2024-01-16T09:03:59;1.80;99.90
39525;DHT22;25203;50.754;6.978;2024-01-16T09:06:00;1.50;99.90
39525;DHT22;25203;50.754;6.978;2024-01-16T09:08:01;1.40;99.90
39525;DHT22;25203;50.754;6.978;2024-01-16T09:10:03;1.40;99.90
39525;DHT22;25203;50.754;6.978;2024-01-16T09:12:04;1.50;99.90
39525;DHT22;25203;50.754;6.978;2024-01-16T09:14:04;1.80;99.90
39525;DHT22;25203;50.754;6.978;2024-01-16T09:16:05;2.40;99.90
39525;DHT22;25203;50.754;6.978;2024-01-16T09:18:06;2.80;99.90
39525;DHT22;25203;50.754;6.978;2024-01-16T09:20:07;3.10;99.00
39525;DHT22;25203;50.754;6.978;2024-01-16T09:22:07;3.30;98.20
39525;DHT22;25203;50.754;6.978;2024-01-16T09:24:08;3.10;98.30
39525;DHT22;25203;50.754;6.978;2024-01-16T09:26:09;3.00;98.50
39525;DHT22;25203;50.754;6.978;2024-01-16T09:28:11;2.90;98.60
39525;DHT22;25203;50.754;6.978;2024-01-16T09:30:12;3.10;98.40
39525;DHT22;25203;50.754;6.978;2024-01-16T09:32:13;3.10;98.00
39525;DHT22;25203;50.754;6.978;2024-01-16T09:34:14;2.90;98.40
39525;DHT22;25203;50.754;6.978;2024-01-16T09:36:14;2.70;98.50
39525;DHT22;25203;50.754;6.978;2024-01-16T09:38:16;2.30;99.20
39525;DHT22;25203;50.754;6.978;2024-01-16T09:40:16;2.00;99.90
39525;DHT22;25203;50.754;6.978;2024-01-16T09:42:19;1.80;99.90
39525;DHT22;25203;50.754;6.978;2024-01-16T09:44:20;1.60;99.90
39525;DHT22;25203;50.754;6.978;2024-01-16T09:46:22;1.60;99.90
39525;DHT22;25203;50.754;6.978;2024-01-16T09:48:24;1.50;99.90
39525;DHT22;25203;50.754;6.978;2024-01-16T09:50:25;1.50;99.90
39525;DHT22;25203;50.754;6.978;2024-01-16T09:52:26;1.60;99.90
39525;DHT22;25203;50.754;6.978;2024-01-16T09:54:27;1.80;99.90
39525;DHT22;25203;50.754;6.978;2024-01-16T09:56:28;2.10;99.90
39525;DHT22;25203;50.754;6.978;2024-01-16T09:58:34;2.60;99.90
39525;DHT22;25203;50.754;6.978;2024-01-16T10:00:36;2.90;99.50
39525;DHT22;25203;50.754;6.978;2024-01-16T10:02:41;3.20;98.80
39525;DHT22;25203;50.754;6.978;2024-01-16T10:04:41;3.40;98.60
39525;DHT22;25203;50.754;6.978;2024-01-16T10:06:45;3.60;98.00
39525;DHT22;25203;50.754;6.978;2024-01-16T10:08:47;3.60;97.70
39525;DHT22;25203;50.754;6.978;2024-01-16T10:10:47;3.40;97.90
39525;DHT22;25203;50.754;6.978;2024-01-16T10:12:49;3.10;98.30
39525;DHT22;25203;50.754;6.978;2024-01-16T10:14:50;2.80;99.00
39525;DHT22;25203;50.754;6.978;2024-01-16T10:17:04;2.60;99.60
39525;DHT22;25203;50.754;6.978;2024-01-16T10:19:15;2.40;99.90
39525;DHT22;25203;50.754;6.978;2024-01-16T10:21:22;2.10;99.90
39525;DHT22;25203;50.754;6.978;2024-01-16T10:23:27;2.00;99.90
39525;DHT22;25203;50.754;6.978;2024-01-16T10:25:28;1.90;99.90
39525;DHT22;25203;50.754;6.978;2024-01-16T10:27:29;1.70;99.90
39525;DHT22;25203;50.754;6.978;2024-01-16T10:29:31;1.50;99.90
39525;DHT22;25203;50.754;6.978;2024-01-16T10:31:32;1.40;99.90
39525;DHT22;25203;50.754;6.978;2024-01-16T10:33:33;1.40;99.90
39525;DHT22;25203;50.754;6.978;2024-01-16T10:35:33;1.40;99.90
39525;DHT22;25203;50.754;6.978;2024-01-16T10:38:00;1.50;99.90
39525;DHT22;25203;50.754;6.978;2024-01-16T10:40:01;1.60;99.90
39525;DHT22;25203;50.754;6.978;2024-01-16T10:42:02;1.80;99.90
39525;DHT22;25203;50.754;6.978;2024-01-16T10:44:06;2.20;99.90
39525;DHT22;25203;50.754;6.978;2024-01-16T10:48:12;3.60;99.90
39525;DHT22;25203;50.754;6.978;2024-01-16T10:50:13;3.70;98.90
39525;DHT22;25203;50.754;6.978;2024-01-16T10:52:14;3.50;99.00
39525;DHT22;25203;50.754;6.978;2024-01-16T10:54:15;3.20;99.30
39525;DHT22;25203;50.754;6.978;2024-01-16T10:56:17;2.90;99.70
39525;DHT22;25203;50.754;6.978;2024-01-16T10:58:23;2.70;99.90
39525;DHT22;25203;50.754;6.978;2024-01-16T11:00:24;2.50;99.90
39525;DHT22;25203;50.754;6.978;2024-01-16T11:02:33;2.30;99.90
39525;DHT22;25203;50.754;6.978;2024-01-16T11:04:37;2.60;99.90
39525;DHT22;25203;50.754;6.978;2024-01-16T11:06:40;3.00;99.80
39525;DHT22;25203;50.754;6.978;2024-01-16T11:08:42;3.60;99.30
39525;DHT22;25203;50.754;6.978;2024-01-16T11:10:43;4.50;97.80
39525;DHT22;25203;50.754;6.978;2024-01-16T11:12:45;5.40;96.20
39525;DHT22;25203;50.754;6.978;2024-01-16T11:14:49;5.80;94.50
39525;DHT22;25203;50.754;6.978;2024-01-16T11:16:53;5.40;94.40
39525;DHT22;25203;50.754;6.978;2024-01-16T11:18:56;5.50;94.10
39525;DHT22;25203;50.754;6.978;2024-01-16T11:20:57;5.30;94.10
39525;DHT22;25203;50.754;6.978;2024-01-16T11:22:58;5.20;94.30
39525;DHT22;25203;50.754;6.978;2024-01-16T11:25:11;5.60;94.50
39525;DHT22;25203;50.754;6.978;2024-01-16T11:27:24;6.20;94.30
39525;DHT22;25203;50.754;6.978;2024-01-16T11:31:35;6.80;92.40
39525;DHT22;25203;50.754;6.978;2024-01-16T11:35:37;6.70;92.90
39525;DHT22;25203;50.754;6.978;2024-01-16T11:37:41;6.70;91.90
39525;DHT22;25203;50.754;6.978;2024-01-16T11:39:43;6.40;91.80
39525;DHT22;25203;50.754;6.978;2024-01-16T11:41:57;6.10;92.40
39525;DHT22;25203;50.754;6.978;2024-01-16T11:43:58;5.90;93.00
39525;DHT22;25203;50.754;6.978;2024-01-16T11:45:59;5.60;92.50
39525;DHT22;25203;50.754;6.978;2024-01-16T11:48:17;5.10;93.40
39525;DHT22;25203;50.754;6.978;2024-01-16T11:50:27;5.10;93.60
39525;DHT22;25203;50.754;6.978;2024-01-16T11:52:42;5.10;94.00
39525;DHT22;25203;50.754;6.978;2024-01-16T11:54:43;5.20;93.10
39525;DHT22;25203;50.754;6.978;2024-01-16T12:01:45;4.60;94.80
39525;DHT22;25203;50.754;6.978;2024-01-16T12:03:46;4.60;94.80
39525;DHT22;25203;50.754;6.978;2024-01-16T12:05:57;4.30;94.40
39525;DHT22;25203;50.754;6.978;2024-01-16T12:07:58;3.80;95.30
39525;DHT22;25203;50.754;6.978;2024-01-16T12:09:59;3.30;96.30
39525;DHT22;25203;50.754;6.978;2024-01-16T12:12:02;3.00;97.10
39525;DHT22;25203;50.754;6.978;2024-01-16T12:14:03;3.00;97.00
39525;DHT22;25203;50.754;6.978;2024-01-16T12:16:04;3.00;96.90
39525;DHT22;25203;50.754;6.978;2024-01-16T12:18:05;3.10;96.90
39525;DHT22;25203;50.754;6.978;2024-01-16T12:20:18;3.00;97.10
39525;DHT22;25203;50.754;6.978;2024-01-16T12:22:19;3.10;97.50
39525;DHT22;25203;50.754;6.978;2024-01-16T12:24:23;3.00;97.50
39525;DHT22;25203;50.754;6.978;2024-01-16T12:26:23;2.70;97.70
39525;DHT22;25203;50.754;6.978;2024-01-16T12:28:24;2.60;98.20
39525;DHT22;25203;50.754;6.978;2024-01-16T12:30:35;2.40;98.60
39525;DHT22;25203;50.754;6.978;2024-01-16T12:32:36;2.50;98.80
39525;DHT22;25203;50.754;6.978;2024-01-16T12:34:47;2.50;98.80
39525;DHT22;25203;50.754;6.978;2024-01-16T12:37:06;2.60;98.90
39525;DHT22;25203;50.754;6.978;2024-01-16T12:39:08;2.50;98.60
39525;DHT22;25203;50.754;6.978;2024-01-16T12:41:12;2.70;98.70
39525;DHT22;25203;50.754;6.978;2024-01-16T12:43:13;2.60;98.40
39525;DHT22;25203;50.754;6.978;2024-01-16T12:45:14;2.60;98.60
39525;DHT22;25203;50.754;6.978;2024-01-16T12:47:15;2.60;98.80
39525;DHT22;25203;50.754;6.978;2024-01-16T12:49:16;2.80;98.70
39525;DHT22;25203;50.754;6.978;2024-01-16T12:51:21;2.80;98.80
39525;DHT22;25203;50.754;6.978;2024-01-16T12:53:24;2.70;97.70
39525;DHT22;25203;50.754;6.978;2024-01-16T12:55:25;2.50;97.90
39525;DHT22;25203;50.754;6.978;2024-01-16T12:57:26;2.30;98.30
39525;DHT22;25203;50.754;6.978;2024-01-16T12:59:30;2.10;98.70
39525;DHT22;25203;50.754;6.978;2024-01-16T13:01:30;2.10;99.00
39525;DHT22;25203;50.754;6.978;2024-01-16T13:03:32;2.10;98.80
39525;DHT22;25203;50.754;6.978;2024-01-16T13:05:33;2.20;99.20
39525;DHT22;25203;50.754;6.978;2024-01-16T13:07:33;2.20;99.20
39525;DHT22;25203;50.754;6.978;2024-01-16T13:09:34;2.30;99.40
39525;DHT22;25203;50.754;6.978;2024-01-16T13:11:54;2.10;98.60